Celik 1 — 9HKY9 — position and weather

sailwx.info

Track history (hours):
 
Tides and Currents Weather Stations Pressure Air Temp Water Temp Dewpoint Dewpoint Depression Visibility Wind Speed Wind Dir Waves Ship Positions

Celik 1

Last reported at 2018-Feb-14 06:52 UTC. Time now 2018-Feb-17 21:47 UTC.
Position N 44°09' E 029°46'.

Length 121 m; draft 4.5 m.

Type: Cargo ship. MMSI: 249114000.

Date/timePositionNaut miles runAvg speedWind from/ knotsBaromVisibWave heightAir tempDewpointWater temp
2018-Feb-14 06:52N 44°09' E 029°46'1110.4
2018-Feb-14 05:48N 43°58' E 029°44'410.5
2018-Feb-14 05:24N 43°54' E 029°44'510.4
2018-Feb-14 04:55N 43°49' E 029°43'17510.0
2018-Feb-13 11:20N 40°56' E 028°58'2 4.5
2018-Feb-13 10:55N 40°56' E 028°56'2 0.2
2018-Feb-12 23:38N 40°58' E 028°54'0 0.0
2018-Feb-12 23:26N 40°58' E 028°54'0 0.0
2018-Feb-12 22:08N 40°58' E 028°54'0 0.2
2018-Feb-12 21:56N 40°58' E 028°54'3 0.6
2018-Feb-12 17:00N 40°56' E 028°57'5 9.5
2018-Feb-12 16:30N 40°52' E 028°53'  
2018-Feb-10 06:05N 36°03' E 030°28'211.1
2018-Feb-10 05:56N 36°03' E 030°30'611.0
2018-Feb-10 05:21N 36°03' E 030°38'410.7
2018-Feb-10 04:58N 36°02' E 030°43'610.6
2018-Feb-10 04:26N 36°02' E 030°50'510.4
2018-Feb-10 03:59N 36°02' E 030°56'510.6
2018-Feb-10 03:30N 36°02' E 031°02'610.3
2018-Feb-10 02:56N 36°02' E 031°09'3210.3
2018-Feb-09 23:47N 36°00' E 031°49'311.2
2018-Feb-09 23:30N 35°60' E 031°53'  
Track history (hours):
 
Tides and Currents Weather Stations Pressure Air Temp Water Temp Dewpoint Dewpoint Depression Visibility Wind Speed Wind Dir Waves Ship Positions

Celik 1

Last reported at 2018-Feb-14 06:52 UTC. Time now 2018-Feb-17 21:47 UTC.
Position N 44°09' E 029°46'.

Length 121 m; draft 4.5 m.

Type: Cargo ship. MMSI: 249114000.

Date/timePositionNaut miles runAvg speedWind from/ knotsBaromVisibWave heightAir tempDewpointWater temp
2018-Feb-14 06:52N 44°09' E 029°46'1110.4
2018-Feb-14 05:48N 43°58' E 029°44'410.5
2018-Feb-14 05:24N 43°54' E 029°44'510.4
2018-Feb-14 04:55N 43°49' E 029°43'17510.0
2018-Feb-13 11:20N 40°56' E 028°58'2 4.5
2018-Feb-13 10:55N 40°56' E 028°56'2 0.2
2018-Feb-12 23:38N 40°58' E 028°54'0 0.0
2018-Feb-12 23:26N 40°58' E 028°54'0 0.0
2018-Feb-12 22:08N 40°58' E 028°54'0 0.2
2018-Feb-12 21:56N 40°58' E 028°54'3 0.6
2018-Feb-12 17:00N 40°56' E 028°57'5 9.5
2018-Feb-12 16:30N 40°52' E 028°53'  
2018-Feb-10 06:05N 36°03' E 030°28'211.1
2018-Feb-10 05:56N 36°03' E 030°30'611.0
2018-Feb-10 05:21N 36°03' E 030°38'410.7
2018-Feb-10 04:58N 36°02' E 030°43'610.6
2018-Feb-10 04:26N 36°02' E 030°50'510.4
2018-Feb-10 03:59N 36°02' E 030°56'510.6
2018-Feb-10 03:30N 36°02' E 031°02'610.3
2018-Feb-10 02:56N 36°02' E 031°09'3210.3
2018-Feb-09 23:47N 36°00' E 031°49'311.2
2018-Feb-09 23:30N 35°60' E 031°53'  

Dump ship's entire track history